Time;durP1;ratioP1;P1;durP2;ratioP2;P2;SDS_P1;SDS_P2;PMS_P1;PMS_P2;Temp;Humidity;BMP_temperature;BMP_pressure;BME280_temperature;BME280_humidity;BME280_pressure;Samples;Min_cycle;Max_cycle;Signal;HPM_P1;HPM_P2
2022/04/15 00:00:32;;;;;;;0.40;0.20;;;13.80;99.90;;;;;;5011577;28;20786;-68
2022/04/15 00:02:57;;;;;;;0.40;0.30;;;13.80;99.90;;;;;;5012444;28;20780;-68
2022/04/15 00:05:40;;;;;;;0.40;0.30;;;13.90;99.90;;;;;;5012278;28;20385;-68
2022/04/15 00:08:13;;;;;;;0.40;0.30;;;13.80;99.90;;;;;;5012553;28;20408;-69
2022/04/15 00:10:40;;;;;;;0.40;0.40;;;13.80;99.90;;;;;;5011472;28;20381;-69
2022/04/15 00:13:11;;;;;;;0.40;0.20;;;13.80;99.90;;;;;;5011778;28;20381;-69
2022/04/15 00:15:40;;;;;;;0.40;0.30;;;13.80;99.90;;;;;;5011602;28;20390;-69
2022/04/15 00:18:06;;;;;;;0.60;0.60;;;13.70;99.90;;;;;;5011794;28;20492;-69
2022/04/15 00:20:32;;;;;;;1.10;1.00;;;13.60;99.90;;;;;;5011717;28;20481;-69
2022/04/15 00:22:59;;;;;;;0.70;0.70;;;13.50;99.90;;;;;;5009814;28;20416;-69
2022/04/15 00:25:25;;;;;;;0.40;0.20;;;13.50;99.90;;;;;;5012111;28;20389;-69
2022/04/15 00:27:51;;;;;;;0.40;0.30;;;13.70;99.90;;;;;;5011179;28;20416;-69
2022/04/15 00:30:18;;;;;;;0.40;0.30;;;13.60;99.90;;;;;;5011978;28;20412;-69
2022/04/15 00:32:43;;;;;;;0.40;0.20;;;13.60;99.90;;;;;;5011461;28;20392;-69
2022/04/15 00:35:10;;;;;;;0.40;0.40;;;13.60;99.90;;;;;;5011049;28;20438;-69
2022/04/15 00:37:36;;;;;;;2.70;1.50;;;13.60;99.90;;;;;;5011333;28;20433;-69
2022/04/15 00:40:04;;;;;;;2.30;0.80;;;13.50;99.90;;;;;;5011180;28;20754;-69
2022/04/15 00:42:31;;;;;;;0.40;0.20;;;13.40;99.90;;;;;;5011839;28;20389;-69
2022/04/15 00:44:57;;;;;;;0.50;0.50;;;13.30;99.90;;;;;;5009736;28;20479;-69
2022/04/15 00:47:51;;;;;;;0.40;0.20;;;13.40;99.90;;;;;;5010123;28;20393;-69
2022/04/15 00:50:18;;;;;;;0.50;0.50;;;13.40;99.90;;;;;;5010581;28;20507;-69
2022/04/15 00:52:46;;;;;;;0.50;0.50;;;13.40;99.90;;;;;;5011735;28;20443;-69
2022/04/15 00:55:14;;;;;;;0.40;0.40;;;13.50;99.90;;;;;;5010605;28;20385;-69
2022/04/15 00:57:55;;;;;;;1.60;0.70;;;13.50;99.90;;;;;;5011445;28;20405;-69
2022/04/15 01:00:22;;;;;;;1.00;0.70;;;13.50;99.90;;;;;;5009399;28;21082;-69
2022/04/15 01:02:48;;;;;;;0.40;0.30;;;13.40;99.90;;;;;;5011214;28;20383;-69
2022/04/15 01:05:15;;;;;;;0.50;0.40;;;13.20;99.90;;;;;;5010609;28;20392;-69
2022/04/15 01:07:43;;;;;;;0.40;0.40;;;13.20;99.90;;;;;;5011262;28;20401;-69
2022/04/15 01:10:13;;;;;;;0.40;0.30;;;13.30;99.90;;;;;;5018736;28;20386;-70
2022/04/15 01:12:54;;;;;;;1.38;0.90;;;13.20;99.90;;;;;;5031200;28;20725;-69
2022/04/15 01:15:22;;;;;;;4.70;0.90;;;13.30;99.90;;;;;;5030287;28;20398;-69
2022/04/15 01:17:47;;;;;;;0.50;0.50;;;13.30;99.90;;;;;;5030769;28;20415;-69
2022/04/15 01:20:14;;;;;;;0.50;0.50;;;13.20;99.90;;;;;;5046019;28;20409;-69
2022/04/15 01:22:41;;;;;;;0.40;0.40;;;13.20;99.90;;;;;;5029399;28;20424;-69
2022/04/15 01:25:09;;;;;;;0.90;0.70;;;13.30;99.90;;;;;;5030171;28;20375;-69
2022/04/15 01:27:38;;;;;;;0.40;0.20;;;13.30;99.90;;;;;;5028788;28;20403;-69
2022/04/15 01:30:14;;;;;;;0.40;0.20;;;13.20;99.90;;;;;;5030765;28;20376;-69
2022/04/15 01:32:40;;;;;;;0.40;0.40;;;13.10;99.90;;;;;;5029717;28;20465;-69
2022/04/15 01:35:07;;;;;;;0.40;0.20;;;13.10;99.90;;;;;;5030446;28;20384;-69
2022/04/15 01:37:35;;;;;;;0.40;0.20;;;13.20;99.90;;;;;;5029867;28;20470;-69
2022/04/15 01:40:02;;;;;;;2.50;1.40;;;13.10;99.90;;;;;;5045697;28;20457;-69
2022/04/15 01:42:27;;;;;;;0.40;0.20;;;13.20;99.90;;;;;;5030741;28;20390;-69
2022/04/15 01:44:53;;;;;;;2.00;0.90;;;13.20;99.90;;;;;;5030496;28;20379;-69
2022/04/15 01:47:19;;;;;;;0.40;0.20;;;13.20;99.90;;;;;;5029175;28;20479;-69
2022/04/15 01:49:45;;;;;;;0.40;0.40;;;13.20;99.90;;;;;;5029481;28;20422;-69
2022/04/15 01:52:10;;;;;;;0.50;0.50;;;13.20;99.90;;;;;;5030693;28;20398;-69
2022/04/15 01:54:36;;;;;;;0.40;0.30;;;13.10;99.90;;;;;;5030311;28;20840;-69
2022/04/15 01:57:03;;;;;;;1.90;1.80;;;13.20;99.90;;;;;;5029954;28;20569;-69
2022/04/15 01:59:28;;;;;;;0.40;0.30;;;13.10;99.90;;;;;;5029156;28;20868;-69
2022/04/15 02:01:54;;;;;;;0.80;0.80;;;13.10;99.90;;;;;;5029542;28;20383;-69
2022/04/15 02:04:26;;;;;;;0.40;0.30;;;13.30;99.90;;;;;;5030484;28;20395;-69
2022/04/15 02:06:53;;;;;;;0.40;0.30;;;13.30;99.90;;;;;;5029268;28;20395;-69
2022/04/15 02:09:19;;;;;;;0.40;0.40;;;13.20;99.90;;;;;;5030343;28;20747;-69
2022/04/15 02:11:45;;;;;;;0.40;0.20;;;13.20;99.90;;;;;;5030479;28;20367;-69
2022/04/15 02:14:12;;;;;;;0.40;0.25;;;13.20;99.90;;;;;;5029355;28;20394;-69
2022/04/15 02:16:39;;;;;;;0.40;0.30;;;13.20;99.90;;;;;;5030105;28;20423;-69
2022/04/15 02:19:05;;;;;;;0.40;0.20;;;13.10;99.90;;;;;;5029506;28;20445;-69
2022/04/15 02:21:31;;;;;;;0.40;0.30;;;13.10;99.90;;;;;;5028915;28;20387;-69
2022/04/15 02:23:56;;;;;;;0.40;0.30;;;13.00;99.90;;;;;;5029982;28;20470;-69
2022/04/15 02:26:22;;;;;;;0.40;0.30;;;13.00;99.90;;;;;;5029593;28;20387;-69
2022/04/15 02:28:48;;;;;;;0.50;0.40;;;13.00;99.90;;;;;;5030022;28;20407;-69
2022/04/15 02:31:13;;;;;;;1.40;0.90;;;13.00;99.90;;;;;;5028034;28;20405;-69
2022/04/15 02:33:39;;;;;;;0.70;0.70;;;13.00;99.90;;;;;;5029935;28;20762;-69
2022/04/15 02:36:06;;;;;;;1.70;1.10;;;13.10;99.90;;;;;;5033036;28;20493;-69
2022/04/15 02:38:33;;;;;;;0.40;0.20;;;13.10;99.90;;;;;;5033217;28;20472;-69
2022/04/15 02:40:59;;;;;;;0.40;0.20;;;13.10;99.90;;;;;;5033366;28;20433;-69
2022/04/15 02:43:31;;;;;;;0.40;0.20;;;13.10;99.90;;;;;;5032485;28;20375;-69
2022/04/15 02:45:58;;;;;;;0.40;0.30;;;13.10;99.90;;;;;;5033550;28;20383;-69
2022/04/15 02:48:24;;;;;;;0.40;0.20;;;13.20;99.90;;;;;;5032573;28;20375;-69
2022/04/15 02:50:50;;;;;;;0.40;0.30;;;13.30;99.90;;;;;;5033564;28;20379;-69
2022/04/15 02:53:16;;;;;;;1.20;1.20;;;13.30;99.90;;;;;;5033100;28;20458;-69
2022/04/15 02:55:41;;;;;;;0.50;0.50;;;13.20;99.90;;;;;;5032694;28;20387;-69
2022/04/15 02:58:07;;;;;;;0.40;0.20;;;13.20;99.90;;;;;;5032898;28;20418;-68
2022/04/15 03:00:33;;;;;;;0.40;0.30;;;13.10;99.90;;;;;;5032268;28;20375;-69
2022/04/15 03:02:58;;;;;;;1.20;1.10;;;13.10;99.90;;;;;;5033173;28;20473;-69
2022/04/15 03:05:24;;;;;;;0.40;0.40;;;13.20;99.90;;;;;;5033008;28;20411;-69
2022/04/15 03:07:50;;;;;;;0.40;0.30;;;13.10;99.90;;;;;;5032048;28;20410;-69
2022/04/15 03:10:15;;;;;;;0.40;0.30;;;13.10;99.90;;;;;;5024650;28;20404;-69
2022/04/15 03:12:41;;;;;;;0.40;0.20;;;13.10;99.90;;;;;;5012829;28;20495;-69
2022/04/15 03:15:09;;;;;;;0.40;0.20;;;13.10;99.90;;;;;;5012908;28;20377;-69
2022/04/15 03:17:35;;;;;;;0.40;0.30;;;13.20;99.90;;;;;;5011624;28;20809;-69
2022/04/15 03:20:02;;;;;;;0.40;0.20;;;13.20;99.90;;;;;;5010680;28;20388;-69
2022/04/15 03:22:29;;;;;;;0.40;0.30;;;13.10;99.90;;;;;;5011844;28;20396;-69
2022/04/15 03:24:54;;;;;;;0.40;0.30;;;13.00;99.90;;;;;;5010908;28;20431;-69
2022/04/15 03:27:20;;;;;;;0.40;0.30;;;13.00;99.90;;;;;;5013146;28;20428;-68
2022/04/15 03:29:46;;;;;;;0.40;0.30;;;13.00;99.90;;;;;;5011736;28;20397;-69
2022/04/15 03:32:11;;;;;;;0.50;0.50;;;13.00;99.90;;;;;;5011925;28;21286;-69
2022/04/15 03:34:37;;;;;;;1.00;0.80;;;13.00;99.90;;;;;;5012640;28;20396;-69
2022/04/15 03:37:06;;;;;;;0.40;0.20;;;13.00;99.90;;;;;;5011581;28;20487;-69
2022/04/15 03:39:31;;;;;;;0.40;0.20;;;13.00;99.90;;;;;;5006383;28;20410;-69
2022/04/15 03:41:57;;;;;;;0.40;0.30;;;13.00;99.90;;;;;;5014612;28;20950;-69
2022/04/15 03:44:23;;;;;;;0.40;0.20;;;12.80;99.90;;;;;;5006216;28;20416;-69
2022/04/15 03:46:49;;;;;;;0.40;0.30;;;12.80;99.90;;;;;;4996527;28;20390;-69
2022/04/15 03:49:15;;;;;;;0.80;0.80;;;12.80;99.90;;;;;;4992522;28;20391;-69
2022/04/15 03:51:41;;;;;;;0.70;0.70;;;12.80;99.90;;;;;;4992913;28;20398;-69
2022/04/15 03:54:06;;;;;;;0.40;0.30;;;12.80;99.90;;;;;;4992767;28;20383;-69
2022/04/15 03:56:33;;;;;;;0.40;0.30;;;12.80;99.90;;;;;;4992319;28;20814;-69
2022/04/15 03:58:58;;;;;;;0.40;0.20;;;12.90;99.90;;;;;;4992715;28;20390;-69
2022/04/15 04:01:24;;;;;;;0.40;0.40;;;12.90;99.90;;;;;;4993016;28;20426;-69
2022/04/15 04:03:51;;;;;;;0.40;0.30;;;12.90;99.90;;;;;;5013345;28;20490;-69
2022/04/15 04:06:17;;;;;;;0.40;0.30;;;12.80;99.90;;;;;;5004113;28;20395;-69
2022/04/15 04:08:49;;;;;;;0.40;0.20;;;12.70;99.90;;;;;;5010431;28;20777;-69
2022/04/15 04:11:16;;;;;;;0.40;0.20;;;12.70;99.90;;;;;;4998082;28;20408;-70
2022/04/15 04:13:42;;;;;;;0.40;0.40;;;12.70;99.90;;;;;;5028947;28;20945;-69
2022/04/15 04:16:08;;;;;;;0.40;0.20;;;12.70;99.90;;;;;;5030758;28;20375;-69
2022/04/15 04:18:33;;;;;;;0.40;0.20;;;12.70;99.90;;;;;;5030433;28;20375;-69
2022/04/15 04:20:59;;;;;;;0.40;0.20;;;12.70;99.90;;;;;;5031522;28;20411;-69
2022/04/15 04:23:25;;;;;;;0.40;0.20;;;12.80;99.90;;;;;;5031564;28;20383;-69
2022/04/15 04:25:50;;;;;;;0.40;0.20;;;12.80;99.90;;;;;;5004145;28;20401;-69
2022/04/15 04:28:16;;;;;;;0.40;0.30;;;12.80;99.90;;;;;;5011793;28;20395;-68
2022/04/15 04:30:41;;;;;;;0.40;0.30;;;12.80;99.90;;;;;;5010912;28;20393;-69
2022/04/15 04:33:07;;;;;;;0.40;0.20;;;12.80;99.90;;;;;;5006138;28;20378;-69
2022/04/15 04:35:33;;;;;;;0.40;0.20;;;12.80;99.90;;;;;;5005759;28;20487;-68
2022/04/15 04:37:59;;;;;;;0.40;0.30;;;12.80;99.90;;;;;;5010062;28;20956;-69
2022/04/15 04:40:24;;;;;;;0.40;0.20;;;12.80;99.90;;;;;;5011240;28;20391;-68
2022/04/15 04:42:51;;;;;;;0.90;0.80;;;12.70;99.90;;;;;;5010183;28;20843;-69
2022/04/15 04:45:18;;;;;;;0.40;0.20;;;12.70;99.90;;;;;;5016715;28;20401;-69
2022/04/15 04:47:46;;;;;;;0.40;0.30;;;12.80;99.90;;;;;;5008501;28;20762;-69
2022/04/15 04:50:12;;;;;;;0.40;0.20;;;12.80;99.90;;;;;;5000924;28;20394;-69
2022/04/15 04:52:38;;;;;;;0.40;0.20;;;12.80;99.90;;;;;;5001477;28;20480;-69
2022/04/15 04:55:06;;;;;;;0.40;0.30;;;12.90;99.90;;;;;;5000134;28;20393;-69
2022/04/15 04:57:32;;;;;;;1.10;0.45;;;12.80;99.90;;;;;;5002345;28;20406;-69
2022/04/15 04:59:57;;;;;;;0.40;0.25;;;12.90;99.90;;;;;;4991291;28;20882;-69
2022/04/15 05:02:23;;;;;;;0.40;0.20;;;12.80;99.90;;;;;;5000821;28;20401;-69
2022/04/15 05:04:49;;;;;;;0.93;0.93;;;12.90;99.90;;;;;;5007797;28;20455;-69
2022/04/15 05:07:15;;;;;;;0.40;0.20;;;12.80;99.90;;;;;;5008801;28;20471;-69
2022/04/15 05:09:43;;;;;;;0.40;0.20;;;12.90;99.90;;;;;;5011302;28;20441;-69
2022/04/15 05:12:10;;;;;;;0.40;0.20;;;12.90;99.90;;;;;;5012187;28;20893;-70
2022/04/15 05:14:36;;;;;;;0.40;0.20;;;13.00;99.90;;;;;;5004195;28;20399;-69
2022/04/15 05:17:02;;;;;;;0.40;0.30;;;13.00;99.90;;;;;;5005236;28;20562;-69
2022/04/15 05:19:28;;;;;;;0.40;0.20;;;13.00;99.90;;;;;;5009838;28;20391;-69
2022/04/15 05:21:53;;;;;;;0.40;0.20;;;12.90;99.90;;;;;;5025902;28;20882;-69
2022/04/15 05:24:19;;;;;;;0.40;0.30;;;13.10;99.90;;;;;;5002713;28;20411;-70
2022/04/15 05:26:45;;;;;;;0.40;0.20;;;13.00;99.90;;;;;;5007363;28;20853;-69
2022/04/15 05:29:10;;;;;;;0.40;0.20;;;13.10;99.90;;;;;;5008808;28;20432;-69
2022/04/15 05:31:36;;;;;;;0.40;0.30;;;13.10;99.90;;;;;;5009768;28;20435;-69
2022/04/15 05:34:03;;;;;;;0.40;0.30;;;13.10;99.90;;;;;;5000362;28;20483;-69
2022/04/15 05:36:29;;;;;;;0.40;0.20;;;13.20;99.90;;;;;;5004484;28;20507;-70
2022/04/15 05:38:55;;;;;;;0.40;0.20;;;13.20;99.90;;;;;;4993732;28;20494;-69
2022/04/15 05:41:20;;;;;;;0.40;0.20;;;13.20;99.90;;;;;;5005689;28;20457;-69
2022/04/15 05:43:46;;;;;;;0.40;0.30;;;13.10;99.90;;;;;;5003705;28;20385;-70
2022/04/15 05:46:12;;;;;;;0.40;0.20;;;13.20;99.90;;;;;;5005892;28;20393;-69
2022/04/15 05:48:38;;;;;;;0.40;0.20;;;13.20;99.90;;;;;;5001931;28;20809;-69
2022/04/15 05:51:04;;;;;;;0.50;0.50;;;13.20;99.90;;;;;;5003749;28;20404;-69
2022/04/15 05:53:30;;;;;;;0.40;0.20;;;13.30;99.90;;;;;;5001544;28;20753;-69
2022/04/15 05:55:57;;;;;;;0.40;0.20;;;13.30;99.90;;;;;;4999675;28;20389;-70
2022/04/15 05:58:26;;;;;;;0.40;0.30;;;13.20;99.90;;;;;;5005004;28;20515;-69
2022/04/15 06:00:52;;;;;;;0.50;0.50;;;13.20;99.90;;;;;;5007556;28;20729;-69
2022/04/15 06:03:21;;;;;;;0.40;0.20;;;13.30;99.90;;;;;;5002567;28;20484;-69
2022/04/15 06:05:47;;;;;;;0.40;0.28;;;13.20;99.90;;;;;;5004018;28;20416;-69
2022/04/15 06:08:13;;;;;;;0.40;0.30;;;13.20;99.90;;;;;;4999119;28;20406;-69
2022/04/15 06:10:39;;;;;;;0.40;0.20;;;13.30;99.90;;;;;;4999294;28;20397;-70
2022/04/15 06:13:14;;;;;;;0.40;0.20;;;13.20;99.90;;;;;;5002021;28;20408;-70
2022/04/15 06:15:41;;;;;;;0.40;0.30;;;13.30;99.90;;;;;;5006604;28;20513;-69
2022/04/15 06:18:07;;;;;;;0.60;0.60;;;13.30;99.90;;;;;;5007082;28;20404;-69
2022/04/15 06:20:34;;;;;;;0.40;0.20;;;13.30;99.90;;;;;;5006597;28;20796;-69
2022/04/15 06:23:01;;;;;;;0.60;0.60;;;13.20;99.90;;;;;;5014029;28;20380;-69
2022/04/15 06:25:26;;;;;;;0.40;0.40;;;13.20;99.90;;;;;;5011953;28;20753;-69
2022/04/15 06:27:54;;;;;;;0.40;0.20;;;13.30;99.90;;;;;;4997999;28;20511;-69
2022/04/15 06:30:21;;;;;;;0.40;0.30;;;13.40;99.90;;;;;;5013158;28;20742;-69
2022/04/15 06:32:47;;;;;;;0.40;0.40;;;13.50;99.90;;;;;;5013951;28;20430;-69
2022/04/15 06:35:13;;;;;;;0.70;0.70;;;13.70;99.90;;;;;;5011245;28;20389;-70
2022/04/15 06:37:39;;;;;;;0.40;0.38;;;13.70;99.90;;;;;;5013573;28;20474;-69
2022/04/15 06:40:05;;;;;;;0.40;0.20;;;13.80;99.90;;;;;;5010639;28;20889;-69
2022/04/15 06:42:31;;;;;;;0.40;0.20;;;13.90;99.90;;;;;;5001320;28;20412;-69
2022/04/15 06:44:59;;;;;;;0.40;0.20;;;14.00;99.90;;;;;;5000628;28;20888;-69
2022/04/15 06:47:25;;;;;;;0.40;0.40;;;14.00;99.90;;;;;;4999504;28;20795;-69
2022/04/15 06:49:50;;;;;;;0.40;0.30;;;14.20;99.90;;;;;;5008323;28;20373;-69
2022/04/15 06:52:17;;;;;;;0.40;0.30;;;14.30;99.90;;;;;;4999907;28;20909;-69
2022/04/15 06:54:44;;;;;;;0.40;0.30;;;14.20;99.90;;;;;;5011675;28;20383;-68
2022/04/15 06:57:09;;;;;;;0.40;0.40;;;14.40;99.90;;;;;;5012617;28;20416;-69
2022/04/15 06:59:36;;;;;;;1.50;1.40;;;14.40;99.90;;;;;;5002914;28;20869;-69
2022/04/15 07:02:02;;;;;;;0.50;0.50;;;14.30;99.90;;;;;;5007184;28;20401;-69
2022/04/15 07:04:28;;;;;;;1.80;1.30;;;14.30;99.90;;;;;;5003980;28;20437;-68
2022/04/15 07:06:57;;;;;;;0.40;0.20;;;14.30;99.90;;;;;;5010187;28;20439;-69
2022/04/15 07:09:23;;;;;;;0.47;0.38;;;14.30;99.90;;;;;;5008994;28;20910;-68
2022/04/15 07:11:50;;;;;;;0.40;0.40;;;14.50;99.90;;;;;;5010372;28;20893;-69
2022/04/15 07:14:16;;;;;;;0.50;0.50;;;14.50;99.90;;;;;;5012476;28;20496;-69
2022/04/15 07:16:41;;;;;;;0.60;0.60;;;14.60;99.90;;;;;;5024321;28;20420;-69
2022/04/15 07:19:07;;;;;;;0.60;0.60;;;14.60;99.90;;;;;;5025917;28;20800;-68
2022/04/15 07:21:37;;;;;;;1.27;1.17;;;14.70;99.90;;;;;;5012548;28;20489;-68
2022/04/15 07:24:04;;;;;;;0.40;0.40;;;14.80;99.90;;;;;;5010104;28;20543;-68
2022/04/15 07:26:30;;;;;;;0.40;0.20;;;14.80;99.90;;;;;;4999115;28;20734;-68
2022/04/15 07:28:56;;;;;;;0.40;0.40;;;14.80;99.90;;;;;;5002291;28;20443;-68
2022/04/15 07:31:22;;;;;;;0.60;0.60;;;14.90;99.90;;;;;;5006023;28;20387;-68
2022/04/15 07:33:49;;;;;;;0.40;0.40;;;14.90;99.90;;;;;;4995619;28;20902;-69
2022/04/15 07:39:09;;;;;;;0.40;0.20;;;15.00;99.90;;;;;;4998334;28;20444;-68
2022/04/15 07:41:38;;;;;;;0.40;0.30;;;14.90;99.90;;;;;;5012201;28;20396;-68
2022/04/15 07:44:05;;;;;;;0.40;0.20;;;15.10;99.90;;;;;;5011231;28;20451;-69
2022/04/15 07:46:30;;;;;;;0.40;0.30;;;15.10;99.90;;;;;;5012359;28;20420;-69
2022/04/15 07:48:56;;;;;;;0.40;0.40;;;15.10;99.90;;;;;;5011868;28;20769;-70
2022/04/15 07:51:22;;;;;;;0.60;0.60;;;15.10;99.90;;;;;;5012153;28;20846;-69
2022/04/15 07:53:47;;;;;;;0.90;0.70;;;15.10;99.90;;;;;;5002272;28;20391;-68
2022/04/15 07:56:13;;;;;;;0.40;0.30;;;15.20;99.90;;;;;;5005301;28;20873;-69
2022/04/15 07:58:39;;;;;;;0.40;0.20;;;15.20;99.90;;;;;;5006053;28;20392;-69
2022/04/15 08:01:06;;;;;;;0.80;0.70;;;15.30;99.90;;;;;;5006420;28;20397;-69
2022/04/15 08:03:32;;;;;;;0.40;0.30;;;15.30;99.90;;;;;;5003124;28;20420;-68
2022/04/15 08:05:58;;;;;;;0.40;0.20;;;15.40;99.90;;;;;;5009549;28;20400;-68
2022/04/15 08:08:24;;;;;;;0.50;0.50;;;15.30;99.90;;;;;;5011328;28;20408;-68
2022/04/15 08:10:53;;;;;;;0.40;0.30;;;15.30;99.90;;;;;;5011787;28;20454;-69
2022/04/15 08:13:19;;;;;;;0.43;0.38;;;15.50;99.90;;;;;;5004088;28;20712;-68
2022/04/15 08:15:46;;;;;;;0.40;0.30;;;15.40;99.90;;;;;;5000680;28;20393;-69
2022/04/15 08:18:12;;;;;;;1.00;1.00;;;15.40;99.90;;;;;;4994576;28;20462;-69
2022/04/15 08:20:37;;;;;;;0.40;0.30;;;15.60;99.90;;;;;;5006972;28;20535;-68
2022/04/15 08:23:09;;;;;;;0.40;0.40;;;15.80;99.90;;;;;;4994144;28;20900;-67
2022/04/15 08:25:36;;;;;;;0.40;0.40;;;15.80;99.90;;;;;;5004231;28;20383;-68
2022/04/15 08:28:03;;;;;;;1.60;1.20;;;15.70;99.90;;;;;;5002629;28;20396;-68
2022/04/15 08:30:30;;;;;;;0.40;0.30;;;15.80;99.90;;;;;;4997678;28;20476;-70
2022/04/15 08:32:57;;;;;;;0.50;0.50;;;15.90;99.90;;;;;;5006162;28;20954;-68
2022/04/15 08:35:23;;;;;;;0.40;0.20;;;15.80;99.90;;;;;;5010799;28;20395;-70
2022/04/15 08:37:49;;;;;;;0.50;0.40;;;15.90;99.90;;;;;;5010456;28;20856;-69
2022/04/15 08:40:15;;;;;;;0.40;0.30;;;15.90;99.90;;;;;;5008626;28;20809;-69
2022/04/15 08:42:42;;;;;;;0.40;0.35;;;15.90;99.90;;;;;;5020672;28;20391;-68
2022/04/15 08:45:09;;;;;;;0.40;0.30;;;15.90;99.90;;;;;;5011370;28;20431;-70
2022/04/15 08:47:37;;;;;;;0.40;0.30;;;15.90;99.90;;;;;;5008483;28;20427;-70
2022/04/15 08:50:05;;;;;;;0.45;0.43;;;16.10;99.90;;;;;;5024635;28;20394;-69
2022/04/15 08:52:32;;;;;;;0.40;0.30;;;16.10;99.90;;;;;;5018215;28;20403;-70
2022/04/15 08:55:00;;;;;;;0.50;0.40;;;16.20;99.90;;;;;;5023936;28;20445;-69
2022/04/15 08:57:27;;;;;;;0.60;0.60;;;16.30;99.90;;;;;;5012297;28;20427;-69
2022/04/15 08:59:53;;;;;;;0.60;0.60;;;16.10;99.90;;;;;;5018317;28;20804;-69
2022/04/15 09:02:30;;;;;;;0.40;0.40;;;16.10;99.90;;;;;;5017207;28;20790;-69
2022/04/15 09:04:59;;;;;;;0.50;0.50;;;16.20;99.90;;;;;;5008214;28;20428;-69
2022/04/15 09:07:29;;;;;;;0.40;0.30;;;16.30;99.90;;;;;;5011521;28;20400;-69
2022/04/15 09:09:57;;;;;;;0.40;0.30;;;16.30;99.90;;;;;;5002497;28;20402;-68
2022/04/15 09:12:30;;;;;;;0.40;0.30;;;16.50;99.90;;;;;;5012211;28;20435;-68
2022/04/15 09:15:08;;;;;;;0.90;0.90;;;16.60;99.90;;;;;;5031295;28;20389;-69
2022/04/15 09:17:38;;;;;;;0.50;0.50;;;16.80;99.90;;;;;;5019233;28;20471;-68
2022/04/15 09:20:05;;;;;;;0.93;0.93;;;16.90;99.90;;;;;;5019602;28;20982;-68
2022/04/15 09:22:31;;;;;;;0.40;0.20;;;17.00;99.90;;;;;;5021214;28;20461;-69
2022/04/15 09:24:58;;;;;;;0.40;0.30;;;17.00;99.90;;;;;;5018991;28;20422;-69
2022/04/15 09:27:23;;;;;;;0.40;0.30;;;16.90;99.90;;;;;;5019478;28;20395;-69
2022/04/15 09:29:51;;;;;;;0.40;0.40;;;17.10;99.90;;;;;;5019096;28;20475;-69
2022/04/15 09:32:18;;;;;;;0.40;0.30;;;17.10;99.90;;;;;;5016297;28;20396;-69
2022/04/15 09:34:54;;;;;;;0.40;0.20;;;17.20;99.90;;;;;;5032735;28;20389;-69
2022/04/15 09:37:21;;;;;;;0.40;0.40;;;17.40;99.90;;;;;;5010151;28;20428;-69
2022/04/15 09:40:14;;;;;;;1.00;1.00;;;17.50;99.90;;;;;;5011026;28;20404;-69
2022/04/15 09:42:50;;;;;;;0.40;0.30;;;17.50;99.90;;;;;;5011040;28;20393;-69
2022/04/15 09:45:21;;;;;;;0.40;0.20;;;17.50;99.90;;;;;;5012665;28;20389;-69
2022/04/15 09:47:55;;;;;;;0.40;0.22;;;17.50;99.90;;;;;;5020020;28;20424;-69
2022/04/15 09:50:22;;;;;;;0.40;0.30;;;17.60;99.90;;;;;;5030026;28;20399;-69
2022/04/15 09:52:51;;;;;;;0.50;0.50;;;17.80;99.90;;;;;;5016736;28;20797;-69
2022/04/15 09:55:23;;;;;;;0.60;0.60;;;17.90;99.90;;;;;;5012682;28;20901;-69
2022/04/15 09:57:49;;;;;;;0.40;0.30;;;18.00;99.90;;;;;;5014742;28;20480;-69
2022/04/15 10:00:19;;;;;;;0.40;0.20;;;17.90;99.90;;;;;;5012939;28;20397;-70
2022/04/15 10:02:49;;;;;;;0.40;0.30;;;18.00;99.90;;;;;;5014547;28;20753;-69
2022/04/15 10:05:16;;;;;;;0.40;0.20;;;18.00;99.90;;;;;;5029161;28;20397;-70
2022/04/15 10:07:42;;;;;;;0.40;0.30;;;18.10;99.90;;;;;;5014695;28;20413;-68
2022/04/15 10:10:09;;;;;;;0.70;0.60;;;18.20;99.90;;;;;;5023513;28;20451;-68
2022/04/15 10:12:39;;;;;;;0.40;0.22;;;18.30;99.90;;;;;;5013373;28;21134;-68
2022/04/15 10:15:09;;;;;;;0.50;0.50;;;18.40;99.90;;;;;;5014325;28;20395;-69
2022/04/15 10:17:38;;;;;;;0.40;0.20;;;18.40;99.90;;;;;;5013349;28;20416;-69
2022/04/15 10:20:04;;;;;;;0.40;0.30;;;18.60;99.90;;;;;;5016404;28;20739;-68
2022/04/15 10:22:31;;;;;;;0.75;0.75;;;18.60;99.90;;;;;;5032052;28;20393;-69
2022/04/15 10:24:57;;;;;;;0.43;0.28;;;18.70;99.90;;;;;;5036887;28;20874;-68
2022/04/15 10:27:26;;;;;;;0.50;0.50;;;18.80;99.90;;;;;;5007504;28;20462;-69
2022/04/15 10:30:22;;;;;;;0.40;0.40;;;18.50;99.90;;;;;;5015881;28;20383;-68
2022/04/15 10:32:49;;;;;;;0.80;0.73;;;18.60;99.90;;;;;;5021591;28;20428;-67
2022/04/15 10:35:22;;;;;;;1.50;0.90;;;18.90;99.90;;;;;;5018670;28;20855;-69
2022/04/15 10:38:00;;;;;;;2.40;1.00;;;18.90;99.90;;;;;;5019722;28;20804;-69
2022/04/15 10:40:27;;;;;;;0.90;0.90;;;18.90;99.30;;;;;;5008200;28;20451;-69
2022/04/15 10:42:53;;;;;;;0.90;0.90;;;19.00;98.90;;;;;;5011555;28;20381;-69
2022/04/15 10:45:29;;;;;;;0.40;0.40;;;19.00;99.10;;;;;;5012706;28;20413;-69
2022/04/15 10:47:59;;;;;;;1.10;0.60;;;19.00;97.50;;;;;;5008796;28;20404;-69
2022/04/15 10:50:29;;;;;;;0.50;0.50;;;18.90;96.90;;;;;;5007737;28;20763;-68
2022/04/15 10:53:15;;;;;;;0.40;0.40;;;19.20;95.80;;;;;;5010617;28;20389;-68
2022/04/15 10:55:43;;;;;;;3.50;1.70;;;19.40;95.70;;;;;;5008741;28;20490;-70
2022/04/15 10:58:13;;;;;;;0.40;0.30;;;19.20;95.50;;;;;;5011391;28;20408;-68
2022/04/15 11:03:28;;;;;;;0.63;0.50;;;19.50;94.80;;;;;;5011113;28;20407;-68
2022/04/15 11:05:57;;;;;;;0.40;0.32;;;19.60;93.80;;;;;;5006526;28;20470;-68
2022/04/15 11:08:25;;;;;;;0.40;0.28;;;19.70;94.20;;;;;;5011653;28;20400;-68
2022/04/15 11:11:01;;;;;;;0.40;0.20;;;19.70;93.50;;;;;;5012560;28;20439;-70
2022/04/15 11:13:33;;;;;;;0.40;0.30;;;19.80;93.60;;;;;;5011355;28;20659;-72
2022/04/15 11:16:14;;;;;;;0.40;0.40;;;19.90;92.20;;;;;;5012064;28;20385;-69
2022/04/15 11:18:51;;;;;;;0.40;0.28;;;20.20;89.70;;;;;;5012010;28;20450;-70
2022/04/15 11:21:23;;;;;;;0.40;0.20;;;20.40;88.20;;;;;;5011598;28;20846;-70
2022/04/15 11:23:52;;;;;;;0.40;0.20;;;20.70;87.50;;;;;;5012020;28;20415;-69
2022/04/15 11:26:19;;;;;;;0.40;0.20;;;20.80;86.10;;;;;;5012225;28;20443;-70
2022/04/15 11:28:46;;;;;;;0.40;0.30;;;20.70;85.70;;;;;;5011279;28;20865;-72
2022/04/15 11:31:39;;;;;;;0.40;0.30;;;20.50;84.90;;;;;;5011891;28;20385;-69
2022/04/15 11:34:11;;;;;;;0.70;0.70;;;20.80;86.20;;;;;;5010344;28;20877;-70
2022/04/15 11:36:41;;;;;;;0.40;0.20;;;21.50;83.20;;;;;;5010981;28;20429;-69
2022/04/15 11:39:12;;;;;;;0.40;0.30;;;22.40;78.80;;;;;;4951614;28;1812244;-68
2022/04/15 11:41:44;;;;;;;0.40;0.20;;;22.70;78.20;;;;;;5013108;28;20421;-70
2022/04/15 11:44:10;;;;;;;0.40;0.40;;;22.40;74.90;;;;;;5019784;28;20468;-68
2022/04/15 11:46:36;;;;;;;0.40;0.30;;;22.00;78.40;;;;;;5012459;28;20816;-71
2022/04/15 11:49:23;;;;;;;0.40;0.30;;;22.20;74.80;;;;;;5010452;28;20416;-68
2022/04/15 11:51:54;;;;;;;0.40;0.40;;;23.00;72.80;;;;;;5011094;28;20448;-69
2022/04/15 11:54:24;;;;;;;0.40;0.20;;;23.00;72.10;;;;;;5012423;28;20401;-69
2022/04/15 11:56:57;;;;;;;0.40;0.30;;;23.40;71.30;;;;;;5009332;28;20423;-72
2022/04/15 11:59:24;;;;;;;0.70;0.70;;;22.90;70.40;;;;;;5006648;28;20434;-72
2022/04/15 12:01:52;;;;;;;0.40;0.20;;;22.40;71.40;;;;;;5012169;28;20385;-72
2022/04/15 12:04:18;;;;;;;0.70;0.70;;;22.20;75.40;;;;;;5004468;28;20389;-70
2022/04/15 12:06:44;;;;;;;0.40;0.30;;;22.80;73.40;;;;;;5011799;28;20388;-71
2022/04/15 12:09:15;;;;;;;0.40;0.20;;;23.30;76.80;;;;;;5010960;28;20385;-71
2022/04/15 12:11:42;;;;;;;0.40;0.20;;;24.30;70.00;;;;;;5009766;28;20471;-69
2022/04/15 12:14:09;;;;;;;0.40;0.40;;;23.20;66.10;;;;;;5011516;28;20385;-69
2022/04/15 12:16:40;;;;;;;0.40;0.30;;;23.50;67.30;;;;;;5001155;28;20437;-70
2022/04/15 12:19:07;;;;;;;0.80;0.60;;;23.10;66.00;;;;;;5007575;28;20411;-71
2022/04/15 12:21:35;;;;;;;0.80;0.60;;;24.50;64.50;;;;;;5008373;28;20404;-69
2022/04/15 12:24:05;;;;;;;0.50;0.50;;;23.90;67.60;;;;;;5003600;28;20385;-69
2022/04/15 12:26:48;;;;;;;0.40;0.20;;;23.00;68.60;;;;;;5010513;28;20393;-69
2022/04/15 12:32:17;;;;;;;0.40;0.30;;;22.80;65.20;;;;;;5011585;28;20520;-70
2022/04/15 12:34:45;;;;;;;0.40;0.30;;;22.40;66.10;;;;;;4995431;28;20492;-72
2022/04/15 12:37:35;;;;;;;0.40;0.30;;;22.40;66.10;;;;;;4993555;28;20414;-72
2022/04/15 12:40:04;;;;;;;0.50;0.30;;;22.60;65.10;;;;;;5003551;28;20496;-70
2022/04/15 12:42:32;;;;;;;0.40;0.30;;;22.40;66.60;;;;;;5010275;28;20464;-72
2022/04/15 12:44:59;;;;;;;0.80;0.80;;;22.30;65.60;;;;;;5006318;28;20768;-72
2022/04/15 12:47:28;;;;;;;0.40;0.20;;;22.60;64.40;;;;;;5004354;28;20428;-69
2022/04/15 12:50:14;;;;;;;0.40;0.20;;;22.70;65.30;;;;;;5012796;28;21022;-72
2022/04/15 12:52:41;;;;;;;0.40;0.20;;;22.80;62.70;;;;;;5020109;28;20396;-70
2022/04/15 12:55:08;;;;;;;0.40;0.40;;;23.00;62.40;;;;;;5022529;28;20581;-69
2022/04/15 12:57:41;;;;;;;0.40;0.30;;;23.10;62.90;;;;;;5031872;28;20811;-70
2022/04/15 13:00:12;;;;;;;0.40;0.20;;;22.80;63.40;;;;;;5019065;28;20388;-69